X  ZavřítMETAR data      LKPD Pardubice Airport

Teplota

24°C Teplota

12°C Rosný bod

47% Vlhkost



Vítr

11 KM/H

 7 MPH

 3 M/S

 6 KTS



90°
Východní směr
Současné podmínky

Jasno Jasno
Tlak vzduchu 1014.92 (hPa) - 29.97 (in)
Dohlednost 6.2 (mi) - 10 (km)
Letiště
Kód letiště LKPD

Lokace Pardubice Airport 80 (km)

Metar:
LKPD 231800Z 09006KT CAVOK 24/12 Q1015 NOSIG

Čas: 23-07-2021 20:00